Time;durP1;ratioP1;P1;durP2;ratioP2;P2;SDS_P1;SDS_P2;PMS_P1;PMS_P2;Temp;Humidity;BMP_temperature;BMP_pressure;BME280_temperature;BME280_humidity;BME280_pressure;Samples;Min_cycle;Max_cycle;Signal;HPM_P1;HPM_P2
2021/05/29 00:01:32;;;;;;;1.17;0.90;;;;;;;;;;5006784;28;20482;-64
2021/05/29 00:03:57;;;;;;;1.10;0.90;;;;;;;;;;4990820;28;20030;-64
2021/05/29 00:06:23;;;;;;;1.70;0.98;;;;;;;;;;5007642;28;20044;-64
2021/05/29 00:08:48;;;;;;;1.33;0.90;;;;;;;;;;5007934;28;20049;-64
2021/05/29 00:11:14;;;;;;;1.08;0.80;;;;;;;;;;5006946;28;20030;-64
2021/05/29 00:13:40;;;;;;;0.80;0.80;;;;;;;;;;5004030;28;20079;-64
2021/05/29 00:16:08;;;;;;;1.20;0.95;;;;;;;;;;5006898;28;20066;-64
2021/05/29 00:18:34;;;;;;;0.73;0.73;;;;;;;;;;5006171;28;20210;-64
2021/05/29 00:20:59;;;;;;;1.00;0.90;;;;;;;;;;5006738;28;20034;-64
2021/05/29 00:23:25;;;;;;;0.90;0.80;;;;;;;;;;5006903;28;20498;-64
2021/05/29 00:25:50;;;;;;;0.82;0.82;;;;;;;;;;5005362;28;22873;-64
2021/05/29 00:28:16;;;;;;;1.55;0.77;;;;;;;;;;4992255;28;20046;-64
2021/05/29 00:30:42;;;;;;;0.70;0.70;;;;;;;;;;5008127;28;20049;-65
2021/05/29 00:33:07;;;;;;;0.75;0.75;;;;;;;;;;5005444;28;20027;-65
2021/05/29 00:35:33;;;;;;;0.80;0.80;;;;;;;;;;4992052;28;20391;-65
2021/05/29 00:37:58;;;;;;;1.40;1.00;;;;;;;;;;5005525;28;20505;-65
2021/05/29 00:40:24;;;;;;;0.88;0.80;;;;;;;;;;5008211;28;20035;-65
2021/05/29 00:42:49;;;;;;;1.40;0.80;;;;;;;;;;4990663;28;20891;-65
2021/05/29 00:45:15;;;;;;;1.02;0.93;;;;;;;;;;4989320;28;22810;-65
2021/05/29 00:47:40;;;;;;;1.15;0.80;;;;;;;;;;5004328;28;20547;-66
2021/05/29 00:50:08;;;;;;;0.80;0.80;;;;;;;;;;5004782;28;20390;-65
2021/05/29 00:52:34;;;;;;;1.23;1.00;;;;;;;;;;5006539;28;20088;-65
2021/05/29 00:55:01;;;;;;;1.45;1.10;;;;;;;;;;5006531;28;20045;-65
2021/05/29 00:57:27;;;;;;;1.00;0.90;;;;;;;;;;5005160;28;20109;-65
2021/05/29 00:59:52;;;;;;;0.85;0.70;;;;;;;;;;4987415;28;20060;-65
2021/05/29 01:02:17;;;;;;;1.25;1.00;;;;;;;;;;4991377;28;20033;-65
2021/05/29 01:04:43;;;;;;;1.40;0.90;;;;;;;;;;5003697;28;20030;-64
2021/05/29 01:07:14;;;;;;;1.33;1.00;;;;;;;;;;4987557;28;20689;-65
2021/05/29 01:09:40;;;;;;;1.52;0.90;;;;;;;;;;4989703;28;20157;-66
2021/05/29 01:12:06;;;;;;;0.98;0.90;;;;;;;;;;4992574;28;20942;-65
2021/05/29 01:14:32;;;;;;;0.70;0.70;;;;;;;;;;4990184;28;20089;-65
2021/05/29 01:16:59;;;;;;;0.90;0.80;;;;;;;;;;5005952;28;20038;-65
2021/05/29 01:19:25;;;;;;;0.75;0.75;;;;;;;;;;4988553;28;20093;-65
2021/05/29 01:21:50;;;;;;;1.33;0.90;;;;;;;;;;4991286;28;20030;-66
2021/05/29 01:24:19;;;;;;;1.10;0.90;;;;;;;;;;4988524;28;20027;-66
2021/05/29 01:26:45;;;;;;;1.25;0.80;;;;;;;;;;4988632;28;20038;-65
2021/05/29 01:29:11;;;;;;;1.75;0.70;;;;;;;;;;5005037;28;20431;-65
2021/05/29 01:31:36;;;;;;;0.82;0.50;;;;;;;;;;5006853;28;20513;-65
2021/05/29 01:34:02;;;;;;;1.38;0.90;;;;;;;;;;5008198;28;20036;-65
2021/05/29 01:36:27;;;;;;;0.80;0.80;;;;;;;;;;5003837;28;20038;-65
2021/05/29 01:38:53;;;;;;;0.70;0.70;;;;;;;;;;5007532;28;20042;-65
2021/05/29 01:41:21;;;;;;;0.88;0.75;;;;;;;;;;5005292;28;20974;-65
2021/05/29 01:43:48;;;;;;;1.00;0.90;;;;;;;;;;5002910;28;20038;-66
2021/05/29 01:46:14;;;;;;;1.10;1.00;;;;;;;;;;5005421;28;20278;-65
2021/05/29 01:48:43;;;;;;;0.98;0.90;;;;;;;;;;5006664;28;20034;-65
2021/05/29 01:51:10;;;;;;;0.98;0.80;;;;;;;;;;5005859;28;20042;-66
2021/05/29 01:53:35;;;;;;;1.35;1.08;;;;;;;;;;5008412;28;20128;-65
2021/05/29 01:56:01;;;;;;;0.95;0.80;;;;;;;;;;5006195;28;20027;-64
2021/05/29 01:58:26;;;;;;;0.68;0.68;;;;;;;;;;5005541;28;20540;-65
2021/05/29 02:00:52;;;;;;;1.13;0.80;;;;;;;;;;4988087;28;20028;-65
2021/05/29 02:03:17;;;;;;;0.70;0.70;;;;;;;;;;5007157;28;20541;-65
2021/05/29 02:05:43;;;;;;;0.50;0.50;;;;;;;;;;4988106;28;20042;-65
2021/05/29 02:08:09;;;;;;;0.40;0.40;;;;;;;;;;4988456;28;20038;-65
2021/05/29 02:10:35;;;;;;;0.38;0.38;;;;;;;;;;5002249;28;20402;-65
2021/05/29 02:13:03;;;;;;;0.40;0.40;;;;;;;;;;5004296;28;20026;-65
2021/05/29 02:15:34;;;;;;;0.30;0.30;;;;;;;;;;5003488;28;20521;-65
2021/05/29 02:18:01;;;;;;;0.40;0.40;;;;;;;;;;5004735;28;20050;-65
2021/05/29 02:20:39;;;;;;;0.40;0.40;;;;;;;;;;5003135;28;20445;-66
2021/05/29 02:23:05;;;;;;;0.70;0.70;;;;;;;;;;4988652;28;20062;-65
2021/05/29 02:25:30;;;;;;;0.60;0.60;;;;;;;;;;5004823;28;20046;-64
2021/05/29 02:27:56;;;;;;;0.30;0.30;;;;;;;;;;5006022;28;20041;-65
2021/05/29 02:30:22;;;;;;;1.27;0.60;;;;;;;;;;4986150;28;20036;-65
2021/05/29 02:32:47;;;;;;;0.75;0.60;;;;;;;;;;4987044;28;20038;-65
2021/05/29 02:35:13;;;;;;;1.02;0.50;;;;;;;;;;5005919;28;20531;-65
2021/05/29 02:37:38;;;;;;;0.93;0.50;;;;;;;;;;4985657;28;20042;-65
2021/05/29 02:40:04;;;;;;;1.70;0.50;;;;;;;;;;5004137;28;20044;-66
2021/05/29 02:42:30;;;;;;;0.70;0.70;;;;;;;;;;5004255;28;20042;-65
2021/05/29 02:44:55;;;;;;;0.70;0.70;;;;;;;;;;4988542;28;20041;-66
2021/05/29 02:47:21;;;;;;;0.50;0.50;;;;;;;;;;5004031;28;20142;-65
2021/05/29 02:49:46;;;;;;;0.70;0.40;;;;;;;;;;4986120;28;20047;-65
2021/05/29 02:52:12;;;;;;;0.70;0.70;;;;;;;;;;4987065;28;20264;-65
2021/05/29 02:54:41;;;;;;;0.80;0.80;;;;;;;;;;5006609;28;20094;-65
2021/05/29 02:57:10;;;;;;;0.85;0.85;;;;;;;;;;5004458;28;20132;-65
2021/05/29 02:59:36;;;;;;;0.70;0.70;;;;;;;;;;5003687;28;20031;-65
2021/05/29 03:02:05;;;;;;;0.95;0.68;;;;;;;;;;5002409;28;20070;-65
2021/05/29 03:04:31;;;;;;;0.82;0.80;;;;;;;;;;5004325;28;20035;-65
2021/05/29 03:06:56;;;;;;;0.60;0.60;;;;;;;;;;4986950;28;20455;-65
2021/05/29 03:09:22;;;;;;;2.78;0.57;;;;;;;;;;5000534;28;20581;-65
2021/05/29 03:11:47;;;;;;;0.60;0.60;;;;;;;;;;5005935;28;20037;-66
2021/05/29 03:14:13;;;;;;;0.60;0.60;;;;;;;;;;5005796;28;20410;-65
2021/05/29 03:16:38;;;;;;;0.50;0.50;;;;;;;;;;5006542;28;20049;-65
2021/05/29 03:19:04;;;;;;;0.77;0.70;;;;;;;;;;5003755;28;20033;-65
2021/05/29 03:21:29;;;;;;;0.75;0.60;;;;;;;;;;5006552;28;20122;-65
2021/05/29 03:23:55;;;;;;;0.70;0.70;;;;;;;;;;5007559;28;20047;-66
2021/05/29 03:26:20;;;;;;;0.70;0.70;;;;;;;;;;5009114;28;20041;-66
2021/05/29 03:28:46;;;;;;;0.60;0.60;;;;;;;;;;5006206;28;20031;-65
2021/05/29 03:31:11;;;;;;;0.70;0.70;;;;;;;;;;5007647;28;20288;-65
2021/05/29 03:33:37;;;;;;;1.20;1.10;;;;;;;;;;5005976;28;20027;-65
2021/05/29 03:36:02;;;;;;;1.10;0.90;;;;;;;;;;5005577;28;20811;-65
2021/05/29 03:38:28;;;;;;;0.90;0.90;;;;;;;;;;5006038;28;20082;-65
2021/05/29 03:40:53;;;;;;;1.17;1.08;;;;;;;;;;5006061;28;20042;-65
2021/05/29 03:43:19;;;;;;;1.20;1.10;;;;;;;;;;5009268;28;20043;-65
2021/05/29 03:45:44;;;;;;;1.10;1.00;;;;;;;;;;4992922;28;20165;-65
2021/05/29 03:48:09;;;;;;;1.02;0.95;;;;;;;;;;5008330;28;20026;-65
2021/05/29 03:50:38;;;;;;;0.80;0.80;;;;;;;;;;4991068;28;20022;-65
2021/05/29 03:53:07;;;;;;;0.77;0.77;;;;;;;;;;4992166;28;20108;-65
2021/05/29 03:55:33;;;;;;;1.10;1.00;;;;;;;;;;4988010;28;20042;-65
2021/05/29 03:57:58;;;;;;;0.75;0.75;;;;;;;;;;5006601;28;20088;-65
2021/05/29 04:00:24;;;;;;;0.52;0.52;;;;;;;;;;5007035;28;20089;-66
2021/05/29 04:02:49;;;;;;;1.20;1.10;;;;;;;;;;5003677;28;20034;-64
2021/05/29 04:05:15;;;;;;;0.65;0.65;;;;;;;;;;5006553;28;25609;-65
2021/05/29 04:07:40;;;;;;;1.13;1.02;;;;;;;;;;5006320;28;20038;-65
2021/05/29 04:10:08;;;;;;;0.82;0.70;;;;;;;;;;4989643;28;20406;-65
2021/05/29 04:12:34;;;;;;;1.00;0.90;;;;;;;;;;4989094;28;20088;-65
2021/05/29 04:14:59;;;;;;;1.17;1.08;;;;;;;;;;5007084;28;20084;-65
2021/05/29 04:17:25;;;;;;;0.70;0.70;;;;;;;;;;5008417;28;20047;-65
2021/05/29 04:19:51;;;;;;;0.60;0.60;;;;;;;;;;4993509;28;20556;-65
2021/05/29 04:22:16;;;;;;;0.75;0.55;;;;;;;;;;5007254;28;20141;-65
2021/05/29 04:24:42;;;;;;;1.23;0.50;;;;;;;;;;5006333;28;20451;-65
2021/05/29 04:27:07;;;;;;;0.50;0.50;;;;;;;;;;5006304;28;20038;-65
2021/05/29 04:29:33;;;;;;;0.65;0.60;;;;;;;;;;5003531;28;20039;-65
2021/05/29 04:32:00;;;;;;;1.65;0.50;;;;;;;;;;5006404;28;20130;-64
2021/05/29 04:34:25;;;;;;;1.00;0.60;;;;;;;;;;4990269;28;20491;-65
2021/05/29 04:36:51;;;;;;;0.63;0.63;;;;;;;;;;5003223;28;20046;-65
2021/05/29 04:39:16;;;;;;;1.65;0.63;;;;;;;;;;5004133;28;20038;-65
2021/05/29 04:41:41;;;;;;;0.77;0.60;;;;;;;;;;5003407;28;20034;-65
2021/05/29 04:44:07;;;;;;;1.27;0.60;;;;;;;;;;5006323;28;20670;-65
2021/05/29 04:46:38;;;;;;;1.60;0.70;;;;;;;;;;5005274;28;20039;-65
2021/05/29 04:49:04;;;;;;;0.95;0.60;;;;;;;;;;5005942;28;20616;-65
2021/05/29 04:51:30;;;;;;;1.27;0.82;;;;;;;;;;5005019;28;20042;-65
2021/05/29 04:53:55;;;;;;;1.70;1.60;;;;;;;;;;5006905;28;20033;-65
2021/05/29 04:56:20;;;;;;;1.55;1.40;;;;;;;;;;4988025;28;20092;-65
2021/05/29 04:58:46;;;;;;;1.52;1.42;;;;;;;;;;5006456;28;20031;-65
2021/05/29 05:01:12;;;;;;;1.20;1.10;;;;;;;;;;5004296;28;20034;-65
2021/05/29 05:03:37;;;;;;;0.82;0.70;;;;;;;;;;5003428;28;20035;-65
2021/05/29 05:06:04;;;;;;;0.82;0.80;;;;;;;;;;4972983;28;20894;-65
2021/05/29 05:08:29;;;;;;;0.70;0.70;;;;;;;;;;5004574;28;20041;-65
2021/05/29 05:10:55;;;;;;;2.20;1.80;;;;;;;;;;5006097;28;20040;-65
2021/05/29 05:13:24;;;;;;;3.42;2.65;;;;;;;;;;5004911;28;20521;-65
2021/05/29 05:15:50;;;;;;;2.95;2.20;;;;;;;;;;5005758;28;20076;-65
2021/05/29 05:18:16;;;;;;;3.35;2.35;;;;;;;;;;4970879;28;20043;-65
2021/05/29 05:20:42;;;;;;;3.30;2.40;;;;;;;;;;4989294;28;20153;-65
2021/05/29 05:23:08;;;;;;;3.25;2.65;;;;;;;;;;5008744;28;20426;-65
2021/05/29 05:25:33;;;;;;;3.80;2.75;;;;;;;;;;4988567;28;20081;-64
2021/05/29 05:27:59;;;;;;;3.50;3.00;;;;;;;;;;5006258;28;20729;-65
2021/05/29 05:30:25;;;;;;;4.03;2.80;;;;;;;;;;5007141;28;20042;-64
2021/05/29 05:32:51;;;;;;;4.25;2.90;;;;;;;;;;5005408;28;20280;-65
2021/05/29 05:35:17;;;;;;;5.05;3.10;;;;;;;;;;5006280;28;20044;-65
2021/05/29 05:37:43;;;;;;;3.92;3.15;;;;;;;;;;4988643;28;20050;-65
2021/05/29 05:40:08;;;;;;;4.28;2.90;;;;;;;;;;5004414;28;20129;-65
2021/05/29 05:42:34;;;;;;;4.38;2.90;;;;;;;;;;5004865;28;20046;-65
2021/05/29 05:44:59;;;;;;;3.08;2.55;;;;;;;;;;4987999;28;20038;-65
2021/05/29 05:47:25;;;;;;;4.65;3.08;;;;;;;;;;5007528;28;20034;-65
2021/05/29 05:49:51;;;;;;;3.95;2.92;;;;;;;;;;5006718;28;20026;-65
2021/05/29 05:52:16;;;;;;;3.90;2.90;;;;;;;;;;5005949;28;20045;-65
2021/05/29 05:54:42;;;;;;;4.05;2.85;;;;;;;;;;5006968;28;20039;-66
2021/05/29 05:57:07;;;;;;;4.03;2.72;;;;;;;;;;5005807;28;20549;-65
2021/05/29 05:59:33;;;;;;;3.97;2.97;;;;;;;;;;5005448;28;20041;-65
2021/05/29 06:01:58;;;;;;;4.45;2.97;;;;;;;;;;5005746;28;20121;-65
2021/05/29 06:04:24;;;;;;;3.70;2.80;;;;;;;;;;5004582;28;20068;-65
2021/05/29 06:06:49;;;;;;;3.33;2.72;;;;;;;;;;5008268;28;20104;-65
2021/05/29 06:09:15;;;;;;;4.75;2.83;;;;;;;;;;5006030;28;20810;-65
2021/05/29 06:11:42;;;;;;;3.50;2.47;;;;;;;;;;5005080;28;20458;-65
2021/05/29 06:19:18;;;;;;;5.13;2.90;;;;;;;;;;4990641;28;20041;-66
2021/05/29 06:21:47;;;;;;;3.35;2.55;;;;;;;;;;5003879;28;20018;-66
2021/05/29 06:24:14;;;;;;;3.30;2.50;;;;;;;;;;5005146;28;20974;-66
2021/05/29 06:26:39;;;;;;;4.03;2.58;;;;;;;;;;5005479;28;20101;-65
2021/05/29 06:29:05;;;;;;;4.03;2.70;;;;;;;;;;4991249;28;20682;-66
2021/05/29 06:31:30;;;;;;;4.30;2.70;;;;;;;;;;4988390;28;20038;-65
2021/05/29 06:33:56;;;;;;;3.80;2.30;;;;;;;;;;5003750;28;20141;-65
2021/05/29 06:36:21;;;;;;;3.88;2.20;;;;;;;;;;4987720;28;20372;-66
2021/05/29 06:38:47;;;;;;;3.78;1.92;;;;;;;;;;5006080;28;20045;-66
2021/05/29 06:41:12;;;;;;;2.92;2.22;;;;;;;;;;5005480;28;20113;-65
2021/05/29 06:43:38;;;;;;;5.30;2.70;;;;;;;;;;5005327;28;20042;-65
2021/05/29 06:46:03;;;;;;;3.53;2.58;;;;;;;;;;4987793;28;20083;-66
2021/05/29 06:48:29;;;;;;;4.25;2.53;;;;;;;;;;5003962;28;20027;-66
2021/05/29 06:50:56;;;;;;;2.42;1.92;;;;;;;;;;5002265;28;20030;-65
2021/05/29 06:53:27;;;;;;;3.15;2.45;;;;;;;;;;5002925;28;20145;-66
2021/05/29 07:01:06;;;;;;;4.00;2.63;;;;;;;;;;5007652;28;20136;-66
2021/05/29 07:03:31;;;;;;;3.40;2.50;;;;;;;;;;5006416;28;20068;-65
2021/05/29 07:05:57;;;;;;;3.63;2.58;;;;;;;;;;5008704;28;20039;-66
2021/05/29 07:08:22;;;;;;;4.53;2.38;;;;;;;;;;5007959;28;20053;-66
2021/05/29 07:10:48;;;;;;;3.55;2.50;;;;;;;;;;4990221;28;20096;-65
2021/05/29 07:13:13;;;;;;;4.70;3.08;;;;;;;;;;4992783;28;20046;-67
2021/05/29 07:15:39;;;;;;;4.15;2.80;;;;;;;;;;4992045;28;20275;-66
2021/05/29 07:18:10;;;;;;;3.65;2.58;;;;;;;;;;5006982;28;20180;-66
2021/05/29 07:20:37;;;;;;;4.90;3.10;;;;;;;;;;5007819;28;20070;-66
2021/05/29 07:23:02;;;;;;;3.85;2.80;;;;;;;;;;5007919;28;20536;-67
2021/05/29 07:25:28;;;;;;;4.05;2.95;;;;;;;;;;5007438;28;20050;-66
2021/05/29 07:27:54;;;;;;;3.80;2.47;;;;;;;;;;5007375;28;20046;-66
2021/05/29 07:30:20;;;;;;;4.43;2.78;;;;;;;;;;4989066;28;20026;-66
2021/05/29 07:32:46;;;;;;;3.42;2.67;;;;;;;;;;5006961;28;20045;-66
2021/05/29 07:35:11;;;;;;;4.60;3.00;;;;;;;;;;5008160;28;20085;-67
2021/05/29 07:37:37;;;;;;;4.78;3.20;;;;;;;;;;4990280;28;20121;-66
2021/05/29 07:40:04;;;;;;;4.82;2.85;;;;;;;;;;4989057;28;20044;-67
2021/05/29 07:42:29;;;;;;;4.43;3.00;;;;;;;;;;5003492;28;20034;-67
2021/05/29 07:44:55;;;;;;;6.10;3.05;;;;;;;;;;5008619;28;20038;-67
2021/05/29 07:47:20;;;;;;;4.32;2.78;;;;;;;;;;5006259;28;20050;-67
2021/05/29 07:49:45;;;;;;;5.57;3.15;;;;;;;;;;5007429;28;20049;-67
2021/05/29 07:52:11;;;;;;;5.10;3.30;;;;;;;;;;5007116;28;20030;-66
2021/05/29 07:54:37;;;;;;;5.38;3.20;;;;;;;;;;5007482;28;20050;-67
2021/05/29 07:57:03;;;;;;;4.43;2.92;;;;;;;;;;4987925;28;20082;-67
2021/05/29 07:59:28;;;;;;;4.50;3.25;;;;;;;;;;5007198;28;20509;-67
2021/05/29 08:01:54;;;;;;;6.07;3.55;;;;;;;;;;4990361;28;20547;-67
2021/05/29 08:04:19;;;;;;;4.82;3.40;;;;;;;;;;5005467;28;20046;-67
2021/05/29 08:06:45;;;;;;;5.07;3.60;;;;;;;;;;4979561;28;20446;-67
2021/05/29 08:09:10;;;;;;;4.13;3.10;;;;;;;;;;5007622;28;20035;-67
2021/05/29 08:11:39;;;;;;;4.60;3.22;;;;;;;;;;5004758;28;20121;-67
2021/05/29 08:14:06;;;;;;;4.93;3.25;;;;;;;;;;5008198;28;20037;-67
2021/05/29 08:16:32;;;;;;;4.22;3.00;;;;;;;;;;5007094;28;20133;-67
2021/05/29 08:18:58;;;;;;;4.05;2.92;;;;;;;;;;5007182;28;20104;-67
2021/05/29 08:21:24;;;;;;;4.43;3.20;;;;;;;;;;5008308;28;20065;-67
2021/05/29 08:23:49;;;;;;;4.55;3.20;;;;;;;;;;5008170;28;20034;-68
2021/05/29 08:26:15;;;;;;;4.75;3.13;;;;;;;;;;5008320;28;20037;-67
2021/05/29 08:28:42;;;;;;;4.10;3.03;;;;;;;;;;4987574;28;20030;-67
2021/05/29 08:31:08;;;;;;;4.75;3.28;;;;;;;;;;5006994;28;20035;-67
2021/05/29 08:33:33;;;;;;;4.75;3.28;;;;;;;;;;4988615;28;20034;-67
2021/05/29 08:35:59;;;;;;;4.63;3.20;;;;;;;;;;4991081;28;20763;-67
2021/05/29 08:38:24;;;;;;;5.25;3.25;;;;;;;;;;5008412;28;20047;-67
2021/05/29 08:40:50;;;;;;;4.85;2.97;;;;;;;;;;5004739;28;20088;-67
2021/05/29 08:43:15;;;;;;;5.78;3.10;;;;;;;;;;4987791;28;20443;-68
2021/05/29 08:45:43;;;;;;;5.47;3.10;;;;;;;;;;5003784;28;20053;-67
2021/05/29 08:48:09;;;;;;;4.78;3.40;;;;;;;;;;5004298;28;20037;-67
2021/05/29 08:50:35;;;;;;;4.63;3.17;;;;;;;;;;5005822;28;21182;-67
2021/05/29 08:53:00;;;;;;;4.28;3.20;;;;;;;;;;5006431;28;20030;-67
2021/05/29 08:55:26;;;;;;;4.47;3.47;;;;;;;;;;4989805;28;20042;-66
2021/05/29 08:57:52;;;;;;;5.60;3.60;;;;;;;;;;4989479;28;20064;-67
2021/05/29 09:00:23;;;;;;;5.00;3.58;;;;;;;;;;4977115;28;20035;-67
2021/05/29 09:03:08;;;;;;;4.30;3.17;;;;;;;;;;5008364;28;20038;-67
2021/05/29 09:05:51;;;;;;;5.22;3.53;;;;;;;;;;5007689;28;20108;-67
2021/05/29 09:08:17;;;;;;;4.35;3.08;;;;;;;;;;4994384;28;20038;-68
2021/05/29 09:10:49;;;;;;;4.75;3.42;;;;;;;;;;5004455;28;20027;-67
2021/05/29 09:13:19;;;;;;;5.05;3.47;;;;;;;;;;4989562;28;20616;-67
2021/05/29 09:16:04;;;;;;;5.03;3.33;;;;;;;;;;5005429;28;20030;-67
2021/05/29 09:18:45;;;;;;;5.80;3.35;;;;;;;;;;4988283;28;20166;-67
2021/05/29 09:21:21;;;;;;;4.28;3.33;;;;;;;;;;5004644;28;20049;-67
2021/05/29 09:23:58;;;;;;;4.45;3.30;;;;;;;;;;5007507;28;20813;-67
2021/05/29 09:26:46;;;;;;;6.80;3.47;;;;;;;;;;5006691;28;20950;-67
2021/05/29 09:29:18;;;;;;;5.22;3.40;;;;;;;;;;5008687;28;20452;-67
2021/05/29 09:31:59;;;;;;;5.40;3.75;;;;;;;;;;5005607;28;20030;-67
2021/05/29 09:34:29;;;;;;;5.72;3.80;;;;;;;;;;5004238;28;20582;-67
2021/05/29 09:37:05;;;;;;;6.10;3.75;;;;;;;;;;5004379;28;20048;-67
2021/05/29 09:39:31;;;;;;;5.32;3.80;;;;;;;;;;5005857;28;20038;-66
2021/05/29 09:41:58;;;;;;;5.10;3.58;;;;;;;;;;5006836;28;20038;-67
2021/05/29 09:44:26;;;;;;;4.57;3.60;;;;;;;;;;5003709;28;20039;-67
2021/05/29 09:46:53;;;;;;;4.75;3.65;;;;;;;;;;5005318;28;20032;-67
2021/05/29 09:49:19;;;;;;;4.63;3.50;;;;;;;;;;5004372;28;20035;-67
2021/05/29 09:51:44;;;;;;;6.20;3.70;;;;;;;;;;5005767;28;20146;-67
2021/05/29 09:54:11;;;;;;;6.65;4.22;;;;;;;;;;5003369;28;20038;-67
2021/05/29 09:56:40;;;;;;;6.40;3.67;;;;;;;;;;4987903;28;20094;-67
2021/05/29 09:59:13;;;;;;;6.10;3.92;;;;;;;;;;4987465;28;20038;-67
2021/05/29 10:01:46;;;;;;;5.80;3.95;;;;;;;;;;5003530;28;20570;-67
2021/05/29 10:04:15;;;;;;;6.03;4.13;;;;;;;;;;5003622;28;20034;-67
2021/05/29 10:06:41;;;;;;;5.45;3.92;;;;;;;;;;5006898;28;20034;-67
2021/05/29 10:09:07;;;;;;;5.32;3.75;;;;;;;;;;5005385;28;20054;-67
2021/05/29 10:11:35;;;;;;;6.65;4.30;;;;;;;;;;5004725;28;20034;-67
2021/05/29 10:14:01;;;;;;;5.60;3.80;;;;;;;;;;5003574;28;20039;-67
2021/05/29 10:16:27;;;;;;;5.47;3.70;;;;;;;;;;5005375;28;20046;-67
2021/05/29 10:18:57;;;;;;;5.40;3.75;;;;;;;;;;4987151;28;20038;-67
2021/05/29 10:21:22;;;;;;;5.78;3.88;;;;;;;;;;5002538;28;20507;-67
2021/05/29 10:23:48;;;;;;;6.10;4.10;;;;;;;;;;5004523;28;20031;-67
2021/05/29 10:26:17;;;;;;;5.85;4.07;;;;;;;;;;4987854;28;20048;-67
2021/05/29 10:28:44;;;;;;;5.65;3.97;;;;;;;;;;4989694;28;20403;-67
2021/05/29 10:31:09;;;;;;;5.93;4.10;;;;;;;;;;5003828;28;20030;-67
2021/05/29 10:33:39;;;;;;;5.82;4.10;;;;;;;;;;5004575;28;20038;-67
2021/05/29 10:36:06;;;;;;;6.13;4.25;;;;;;;;;;5005040;28;20042;-67
2021/05/29 10:38:41;;;;;;;7.30;4.40;;;;;;;;;;4975773;28;20051;-67
2021/05/29 10:41:07;;;;;;;6.32;4.57;;;;;;;;;;5003421;28;20092;-67
2021/05/29 10:43:34;;;;;;;6.93;4.53;;;;;;;;;;5006736;28;20048;-67
2021/05/29 10:46:05;;;;;;;6.50;4.20;;;;;;;;;;5007145;28;20865;-68
2021/05/29 10:48:41;;;;;;;5.97;4.28;;;;;;;;;;5005152;28;20065;-68
2021/05/29 10:51:09;;;;;;;6.10;4.07;;;;;;;;;;5004902;28;20058;-68
2021/05/29 10:53:54;;;;;;;6.07;4.00;;;;;;;;;;5004070;28;20034;-68
2021/05/29 10:56:22;;;;;;;5.55;3.75;;;;;;;;;;5005201;28;20105;-68
2021/05/29 10:58:54;;;;;;;6.07;4.10;;;;;;;;;;5005283;28;20034;-68
2021/05/29 11:01:19;;;;;;;7.55;4.00;;;;;;;;;;5005406;28;20041;-69
2021/05/29 11:03:45;;;;;;;5.03;3.70;;;;;;;;;;5003770;28;20435;-68
2021/05/29 11:06:29;;;;;;;4.43;3.33;;;;;;;;;;5004085;28;20040;-68
2021/05/29 11:08:57;;;;;;;5.45;3.67;;;;;;;;;;5002941;28;20114;-68
2021/05/29 11:14:10;;;;;;;4.88;3.55;;;;;;;;;;5005826;28;20045;-68
2021/05/29 11:16:52;;;;;;;5.63;3.63;;;;;;;;;;5002168;28;20065;-69
2021/05/29 11:19:24;;;;;;;6.13;4.10;;;;;;;;;;5007264;28;20042;-66
2021/05/29 11:22:18;;;;;;;5.18;4.00;;;;;;;;;;5003318;28;20116;-66
2021/05/29 11:24:50;;;;;;;6.00;4.20;;;;;;;;;;5008765;28;20042;-66
2021/05/29 11:27:22;;;;;;;6.20;4.00;;;;;;;;;;5004857;28;20108;-66
2021/05/29 11:29:56;;;;;;;5.45;3.78;;;;;;;;;;5005317;28;20096;-66
2021/05/29 11:32:51;;;;;;;6.40;3.97;;;;;;;;;;4988817;28;20034;-66
2021/05/29 11:35:37;;;;;;;5.18;3.67;;;;;;;;;;5004955;28;20030;-67
2021/05/29 11:38:13;;;;;;;6.90;4.70;;;;;;;;;;4972364;28;20047;-67
2021/05/29 11:40:52;;;;;;;6.28;4.22;;;;;;;;;;5003613;28;20038;-66
2021/05/29 11:43:19;;;;;;;5.30;4.10;;;;;;;;;;5006859;28;20858;-66
2021/05/29 11:45:45;;;;;;;6.63;4.28;;;;;;;;;;5008294;28;20077;-67
2021/05/29 11:48:11;;;;;;;7.45;4.55;;;;;;;;;;5005793;28;20033;-66
2021/05/29 11:50:40;;;;;;;7.38;5.00;;;;;;;;;;5006489;28;20050;-67
2021/05/29 11:53:07;;;;;;;6.32;4.25;;;;;;;;;;5007530;28;20034;-68
2021/05/29 11:55:48;;;;;;;6.03;4.25;;;;;;;;;;5006621;28;20030;-67
2021/05/29 11:58:14;;;;;;;6.32;4.55;;;;;;;;;;4991578;28;20042;-68
2021/05/29 12:00:39;;;;;;;6.50;4.40;;;;;;;;;;4992210;28;20042;-67
2021/05/29 12:03:05;;;;;;;6.25;4.40;;;;;;;;;;4990353;28;20033;-67
2021/05/29 12:05:39;;;;;;;6.70;4.68;;;;;;;;;;5007631;28;20030;-67
2021/05/29 12:08:06;;;;;;;6.75;4.60;;;;;;;;;;5007518;28;20038;-67
2021/05/29 12:10:51;;;;;;;6.38;4.03;;;;;;;;;;5009208;28;20034;-67
2021/05/29 12:13:30;;;;;;;6.53;4.22;;;;;;;;;;5007071;28;20557;-67
2021/05/29 12:15:57;;;;;;;6.85;4.38;;;;;;;;;;5005511;28;20038;-66
2021/05/29 12:18:23;;;;;;;5.53;3.95;;;;;;;;;;4987741;28;20046;-67
2021/05/29 12:20:55;;;;;;;7.22;4.53;;;;;;;;;;4992869;28;20038;-67
2021/05/29 12:23:21;;;;;;;5.82;4.30;;;;;;;;;;5010236;28;20073;-67
2021/05/29 12:25:46;;;;;;;6.78;4.82;;;;;;;;;;4991040;28;20045;-67
2021/05/29 12:28:12;;;;;;;5.18;3.97;;;;;;;;;;5005712;28;20038;-67
2021/05/29 12:30:37;;;;;;;6.93;4.47;;;;;;;;;;4994409;28;20037;-67
2021/05/29 12:33:18;;;;;;;6.85;4.40;;;;;;;;;;5006972;28;20061;-67
2021/05/29 12:35:43;;;;;;;7.57;4.97;;;;;;;;;;5006433;28;20052;-67
2021/05/29 12:38:15;;;;;;;7.88;5.57;;;;;;;;;;5006573;28;20097;-67
2021/05/29 12:41:09;;;;;;;8.43;5.55;;;;;;;;;;5007166;28;20065;-67
2021/05/29 12:43:36;;;;;;;8.10;5.70;;;;;;;;;;5007715;28;20049;-67
2021/05/29 12:46:01;;;;;;;8.05;5.50;;;;;;;;;;5006153;28;20026;-67
2021/05/29 12:48:27;;;;;;;6.93;4.90;;;;;;;;;;4971063;28;20510;-67
2021/05/29 12:51:27;;;;;;;7.55;5.07;;;;;;;;;;5006353;28;20508;-67
2021/05/29 12:53:50;;;;;;;7.95;4.97;;;;;;;;;;5004847;28;20096;-67
2021/05/29 12:56:17;;;;;;;7.65;5.65;;;;;;;;;;4991543;28;20521;-67
2021/05/29 12:59:05;;;;;;;8.25;5.78;;;;;;;;;;4989346;28;20176;-67
2021/05/29 13:09:43;;;;;;;6.88;4.70;;;;;;;;;;4993703;28;20049;-67
2021/05/29 13:12:16;;;;;;;6.32;4.55;;;;;;;;;;5008975;28;20041;-67
2021/05/29 13:14:42;;;;;;;6.38;4.47;;;;;;;;;;5004922;28;20038;-67
2021/05/29 13:17:09;;;;;;;7.28;4.72;;;;;;;;;;5006163;28;20134;-67
2021/05/29 13:19:47;;;;;;;6.50;4.63;;;;;;;;;;4990212;28;20046;-67
2021/05/29 13:22:18;;;;;;;6.40;4.32;;;;;;;;;;5004775;28;20038;-67
2021/05/29 13:24:46;;;;;;;5.47;4.20;;;;;;;;;;5004423;28;20034;-67
2021/05/29 13:27:13;;;;;;;5.70;4.10;;;;;;;;;;5006150;28;20038;-67
2021/05/29 13:29:39;;;;;;;5.85;4.35;;;;;;;;;;5004695;28;20116;-67
2021/05/29 13:32:06;;;;;;;5.78;4.30;;;;;;;;;;5005352;28;20526;-67
2021/05/29 13:34:32;;;;;;;7.00;4.75;;;;;;;;;;5004511;28;20042;-67
2021/05/29 13:36:57;;;;;;;6.28;4.03;;;;;;;;;;4988134;28;20034;-67
2021/05/29 13:39:23;;;;;;;5.40;3.90;;;;;;;;;;4989240;28;20033;-67
2021/05/29 13:41:48;;;;;;;6.07;4.13;;;;;;;;;;5004048;28;20054;-67
2021/05/29 13:44:14;;;;;;;5.90;4.35;;;;;;;;;;4987368;28;20487;-67
2021/05/29 13:46:39;;;;;;;5.88;4.10;;;;;;;;;;4991249;28;20050;-67
2021/05/29 13:49:05;;;;;;;6.18;4.30;;;;;;;;;;5006016;28;20048;-67
2021/05/29 13:51:34;;;;;;;6.63;4.45;;;;;;;;;;4988124;28;20084;-67
2021/05/29 13:54:00;;;;;;;5.90;4.10;;;;;;;;;;4992576;28;20488;-67
2021/05/29 13:56:26;;;;;;;5.53;4.00;;;;;;;;;;5003048;28;20031;-67
2021/05/29 13:58:52;;;;;;;5.45;3.90;;;;;;;;;;4988498;28;20043;-67
2021/05/29 14:01:19;;;;;;;6.40;4.20;;;;;;;;;;4989878;28;20771;-67
2021/05/29 14:03:44;;;;;;;4.97;3.55;;;;;;;;;;5006710;28;20038;-67
2021/05/29 14:06:10;;;;;;;5.03;3.72;;;;;;;;;;5005524;28;20904;-67
2021/05/29 14:08:35;;;;;;;6.13;4.15;;;;;;;;;;5004958;28;20038;-67
2021/05/29 14:11:03;;;;;;;5.55;3.72;;;;;;;;;;5002936;28;20040;-67
2021/05/29 14:13:28;;;;;;;5.63;4.05;;;;;;;;;;5004252;28;20027;-67
2021/05/29 14:15:54;;;;;;;5.95;4.30;;;;;;;;;;4986842;28;20038;-67
2021/05/29 14:18:19;;;;;;;5.75;4.10;;;;;;;;;;5005740;28;20568;-67
2021/05/29 14:20:45;;;;;;;5.47;3.85;;;;;;;;;;5005877;28;20072;-66
2021/05/29 14:23:10;;;;;;;4.63;3.30;;;;;;;;;;5004912;28;20036;-67
2021/05/29 14:25:35;;;;;;;4.32;3.33;;;;;;;;;;5004197;28;20076;-67
2021/05/29 14:28:01;;;;;;;5.68;3.42;;;;;;;;;;5005013;28;20034;-67
2021/05/29 14:30:26;;;;;;;5.20;3.58;;;;;;;;;;5006586;28;20468;-67
2021/05/29 14:32:52;;;;;;;5.00;3.30;;;;;;;;;;5005400;28;20038;-67
2021/05/29 14:35:17;;;;;;;5.15;3.88;;;;;;;;;;5003454;28;20736;-67
2021/05/29 14:37:43;;;;;;;5.00;3.17;;;;;;;;;;4989979;28;20064;-67
2021/05/29 14:40:08;;;;;;;4.80;3.45;;;;;;;;;;5005694;28;20046;-67
2021/05/29 14:42:35;;;;;;;5.45;3.67;;;;;;;;;;5005555;28;20538;-67
2021/05/29 14:45:01;;;;;;;4.78;3.47;;;;;;;;;;5005650;28;20514;-67
2021/05/29 14:47:26;;;;;;;4.60;3.40;;;;;;;;;;5005781;28;20037;-67
2021/05/29 14:49:52;;;;;;;4.60;3.50;;;;;;;;;;4987736;28;20042;-67
2021/05/29 14:52:17;;;;;;;4.85;3.28;;;;;;;;;;5005795;28;20038;-67
2021/05/29 14:54:43;;;;;;;4.95;3.25;;;;;;;;;;5004711;28;20038;-67
2021/05/29 14:57:08;;;;;;;4.30;3.50;;;;;;;;;;5003724;28;20038;-68
2021/05/29 14:59:34;;;;;;;5.13;3.40;;;;;;;;;;5003815;28;20038;-67
2021/05/29 15:02:02;;;;;;;4.22;3.33;;;;;;;;;;5004579;28;20064;-67
2021/05/29 15:04:28;;;;;;;5.10;3.30;;;;;;;;;;5005596;28;20076;-67
2021/05/29 15:06:53;;;;;;;4.70;3.13;;;;;;;;;;5004176;28;20070;-67